首页
METAR-TAF:

METAR-TAF

机场 :

馬拉博機場

馬拉博, 赤道几内亚

纬度: 03-45-18N, 经度: 08-42-31E, 海拔: 23米

当前天气观测

该预报发布于48分钟前的11:00 UTC
风速4节,风向西北,在西之间变化
温度 29°C
湿度 70%
气压 1011 hPa
能见度10公里或以上
少量云层高于1000英尺
少量云层高于2000英尺, 积雨云.

METAR: FGSL 191100Z 31004KT 270V360 9999 FEW010 FEW020CB 29/23 Q1011 NOSIG

时间: 12:48 (11:48 UTC)

预报

该预报发布于12小时和48分钟前的23:00 UTC
预报有效从19日的 00点(UTC)到 20日的 06点(UTC)
风速6节,风向西南
能见度10公里或以上
散云层高于1200英尺
少量云层高于2000英尺, 积雨云.
雷暴
几率 30% :
短暂存在
从 19日的 00点(UTC)到 19日的 08点(UTC)
能見度: 4000
多云层高于800英尺
少量云层高于1800英尺, 积雨云.
雷暴, 雨
成为
从 19日的 08点(UTC)到 19日的 10点(UTC)
短暂存在
从 19日的 18点(UTC)到 19日的 24点(UTC)
雷暴

TAF: FGSL 182300Z 1900/2006 22006KT 9999 TS SCT012 FEW020CB PROB30 TEMPO 1900/1908 4000 TSRA BKN008 FEW018CB BECMG 1908/1910 NSW TEMPO 1918/1924 TS

超过4000个机场的气象观测和天气预报(METAR&TAF报告)。

可查询的气象台以黄色和红色小点在地图上表示。

将鼠标移到小点上方,可查看气象台名称。

然后点击查看天气观测和预报。

如需切换地图:点击带黑十字的绿色按钮放大地图;点击带横线的绿色按钮缩小地图;或者点击绿色箭头查看邻近地区的地图。


METAR-TAF: